sensor_id;sensor_type;location;lat;lon;timestamp;P1;durP1;ratioP1;P2;durP2;ratioP2
37451;SDS011;23314;51.114;6.900;2023-03-16T00:00:44;7.77;;;4.50;;
37451;SDS011;23314;51.114;6.900;2023-03-16T00:03:09;9.40;;;4.33;;
37451;SDS011;23314;51.114;6.900;2023-03-16T00:05:35;5.50;;;4.10;;
37451;SDS011;23314;51.114;6.900;2023-03-16T00:08:01;9.80;;;4.77;;
37451;SDS011;23314;51.114;6.900;2023-03-16T00:10:26;10.13;;;4.63;;
37451;SDS011;23314;51.114;6.900;2023-03-16T00:12:52;9.90;;;4.60;;
37451;SDS011;23314;51.114;6.900;2023-03-16T00:15:18;7.20;;;4.10;;
37451;SDS011;23314;51.114;6.900;2023-03-16T00:17:44;7.17;;;4.90;;
37451;SDS011;23314;51.114;6.900;2023-03-16T00:20:12;9.90;;;4.77;;
37451;SDS011;23314;51.114;6.900;2023-03-16T00:22:41;7.40;;;4.50;;
37451;SDS011;23314;51.114;6.900;2023-03-16T00:25:08;6.50;;;4.33;;
37451;SDS011;23314;51.114;6.900;2023-03-16T00:27:34;7.63;;;4.27;;
37451;SDS011;23314;51.114;6.900;2023-03-16T00:30:00;6.43;;;4.00;;
37451;SDS011;23314;51.114;6.900;2023-03-16T00:32:33;9.67;;;4.70;;
37451;SDS011;23314;51.114;6.900;2023-03-16T00:34:59;8.47;;;4.90;;
37451;SDS011;23314;51.114;6.900;2023-03-16T00:37:27;9.93;;;4.73;;
37451;SDS011;23314;51.114;6.900;2023-03-16T00:39:53;9.67;;;4.30;;
37451;SDS011;23314;51.114;6.900;2023-03-16T00:42:26;8.47;;;4.23;;
37451;SDS011;23314;51.114;6.900;2023-03-16T00:44:57;7.97;;;4.50;;
37451;SDS011;23314;51.114;6.900;2023-03-16T00:47:24;10.47;;;4.37;;
37451;SDS011;23314;51.114;6.900;2023-03-16T00:49:52;7.90;;;4.23;;
37451;SDS011;23314;51.114;6.900;2023-03-16T00:52:18;9.10;;;4.97;;
37451;SDS011;23314;51.114;6.900;2023-03-16T00:54:45;6.93;;;4.57;;
37451;SDS011;23314;51.114;6.900;2023-03-16T00:57:15;5.43;;;4.30;;
37451;SDS011;23314;51.114;6.900;2023-03-16T00:59:43;6.33;;;3.93;;
37451;SDS011;23314;51.114;6.900;2023-03-16T01:02:09;8.23;;;4.30;;
37451;SDS011;23314;51.114;6.900;2023-03-16T01:04:35;7.97;;;4.60;;
37451;SDS011;23314;51.114;6.900;2023-03-16T01:07:02;8.27;;;4.40;;
37451;SDS011;23314;51.114;6.900;2023-03-16T01:09:28;7.60;;;4.30;;
37451;SDS011;23314;51.114;6.900;2023-03-16T01:11:54;9.03;;;4.37;;
37451;SDS011;23314;51.114;6.900;2023-03-16T01:14:19;7.07;;;3.70;;
37451;SDS011;23314;51.114;6.900;2023-03-16T01:16:46;7.10;;;4.13;;
37451;SDS011;23314;51.114;6.900;2023-03-16T01:19:12;9.90;;;3.90;;
37451;SDS011;23314;51.114;6.900;2023-03-16T01:21:38;7.23;;;4.30;;
37451;SDS011;23314;51.114;6.900;2023-03-16T01:24:04;9.33;;;4.30;;
37451;SDS011;23314;51.114;6.900;2023-03-16T01:26:29;5.93;;;3.67;;
37451;SDS011;23314;51.114;6.900;2023-03-16T01:28:55;6.27;;;4.27;;
37451;SDS011;23314;51.114;6.900;2023-03-16T01:31:20;8.63;;;3.97;;
37451;SDS011;23314;51.114;6.900;2023-03-16T01:33:46;5.77;;;3.70;;
37451;SDS011;23314;51.114;6.900;2023-03-16T01:36:15;9.43;;;4.03;;
37451;SDS011;23314;51.114;6.900;2023-03-16T01:38:42;5.53;;;3.70;;
37451;SDS011;23314;51.114;6.900;2023-03-16T01:41:07;5.73;;;4.47;;
37451;SDS011;23314;51.114;6.900;2023-03-16T01:43:34;9.23;;;3.90;;
37451;SDS011;23314;51.114;6.900;2023-03-16T01:48:36;6.33;;;4.23;;
37451;SDS011;23314;51.114;6.900;2023-03-16T01:51:11;6.80;;;4.43;;
37451;SDS011;23314;51.114;6.900;2023-03-16T01:53:42;6.80;;;3.47;;
37451;SDS011;23314;51.114;6.900;2023-03-16T01:56:10;7.77;;;4.00;;
37451;SDS011;23314;51.114;6.900;2023-03-16T01:58:41;5.27;;;3.63;;
37451;SDS011;23314;51.114;6.900;2023-03-16T02:01:08;6.83;;;4.03;;
37451;SDS011;23314;51.114;6.900;2023-03-16T02:03:34;5.97;;;3.50;;
37451;SDS011;23314;51.114;6.900;2023-03-16T02:06:05;4.07;;;3.53;;
37451;SDS011;23314;51.114;6.900;2023-03-16T02:08:40;8.13;;;3.80;;
37451;SDS011;23314;51.114;6.900;2023-03-16T02:11:09;7.70;;;3.60;;
37451;SDS011;23314;51.114;6.900;2023-03-16T02:13:35;9.10;;;3.33;;
37451;SDS011;23314;51.114;6.900;2023-03-16T02:16:02;8.27;;;3.43;;
37451;SDS011;23314;51.114;6.900;2023-03-16T02:18:31;5.70;;;3.33;;
37451;SDS011;23314;51.114;6.900;2023-03-16T02:23:40;9.63;;;3.70;;
37451;SDS011;23314;51.114;6.900;2023-03-16T02:26:25;5.33;;;3.20;;
37451;SDS011;23314;51.114;6.900;2023-03-16T02:29:12;6.10;;;3.40;;
37451;SDS011;23314;51.114;6.900;2023-03-16T02:31:38;4.33;;;2.80;;
37451;SDS011;23314;51.114;6.900;2023-03-16T02:34:04;4.80;;;3.17;;
37451;SDS011;23314;51.114;6.900;2023-03-16T02:36:30;3.17;;;2.80;;
37451;SDS011;23314;51.114;6.900;2023-03-16T02:38:57;3.70;;;3.00;;
37451;SDS011;23314;51.114;6.900;2023-03-16T02:41:23;4.10;;;2.97;;
37451;SDS011;23314;51.114;6.900;2023-03-16T02:43:49;5.53;;;3.40;;
37451;SDS011;23314;51.114;6.900;2023-03-16T02:46:20;4.50;;;3.10;;
37451;SDS011;23314;51.114;6.900;2023-03-16T02:51:40;5.33;;;3.00;;
37451;SDS011;23314;51.114;6.900;2023-03-16T02:54:06;3.47;;;2.90;;
37451;SDS011;23314;51.114;6.900;2023-03-16T02:56:32;3.77;;;3.30;;
37451;SDS011;23314;51.114;6.900;2023-03-16T02:58:57;4.57;;;3.33;;
37451;SDS011;23314;51.114;6.900;2023-03-16T03:01:23;6.27;;;3.40;;
37451;SDS011;23314;51.114;6.900;2023-03-16T03:03:48;4.73;;;3.17;;
37451;SDS011;23314;51.114;6.900;2023-03-16T03:06:14;5.10;;;2.97;;
37451;SDS011;23314;51.114;6.900;2023-03-16T03:08:39;6.03;;;2.87;;
37451;SDS011;23314;51.114;6.900;2023-03-16T03:11:04;7.27;;;3.37;;
37451;SDS011;23314;51.114;6.900;2023-03-16T03:13:30;5.87;;;2.80;;
37451;SDS011;23314;51.114;6.900;2023-03-16T03:15:55;4.93;;;3.00;;
37451;SDS011;23314;51.114;6.900;2023-03-16T03:18:21;7.43;;;2.97;;
37451;SDS011;23314;51.114;6.900;2023-03-16T03:20:46;4.40;;;2.80;;
37451;SDS011;23314;51.114;6.900;2023-03-16T03:23:11;5.80;;;3.07;;
37451;SDS011;23314;51.114;6.900;2023-03-16T03:25:39;5.40;;;3.20;;
37451;SDS011;23314;51.114;6.900;2023-03-16T03:28:04;5.07;;;2.70;;
37451;SDS011;23314;51.114;6.900;2023-03-16T03:30:29;5.03;;;3.13;;
37451;SDS011;23314;51.114;6.900;2023-03-16T03:32:55;5.50;;;2.90;;
37451;SDS011;23314;51.114;6.900;2023-03-16T03:35:21;5.27;;;3.10;;
37451;SDS011;23314;51.114;6.900;2023-03-16T03:37:46;7.33;;;3.43;;
37451;SDS011;23314;51.114;6.900;2023-03-16T03:40:13;4.10;;;2.60;;
37451;SDS011;23314;51.114;6.900;2023-03-16T03:42:40;6.83;;;3.40;;
37451;SDS011;23314;51.114;6.900;2023-03-16T03:45:06;4.87;;;2.93;;
37451;SDS011;23314;51.114;6.900;2023-03-16T03:47:32;7.80;;;2.80;;
37451;SDS011;23314;51.114;6.900;2023-03-16T03:49:58;6.10;;;2.97;;
37451;SDS011;23314;51.114;6.900;2023-03-16T03:52:23;5.03;;;2.73;;
37451;SDS011;23314;51.114;6.900;2023-03-16T03:54:49;5.10;;;2.90;;
37451;SDS011;23314;51.114;6.900;2023-03-16T03:57:14;4.93;;;3.20;;
37451;SDS011;23314;51.114;6.900;2023-03-16T03:59:39;3.87;;;3.10;;
37451;SDS011;23314;51.114;6.900;2023-03-16T04:02:08;4.67;;;2.90;;
37451;SDS011;23314;51.114;6.900;2023-03-16T04:04:34;4.97;;;2.70;;
37451;SDS011;23314;51.114;6.900;2023-03-16T04:07:00;4.90;;;3.00;;
37451;SDS011;23314;51.114;6.900;2023-03-16T04:09:25;4.27;;;3.00;;
37451;SDS011;23314;51.114;6.900;2023-03-16T04:11:51;6.80;;;3.10;;
37451;SDS011;23314;51.114;6.900;2023-03-16T04:14:16;4.30;;;3.10;;
37451;SDS011;23314;51.114;6.900;2023-03-16T04:16:41;4.13;;;2.73;;
37451;SDS011;23314;51.114;6.900;2023-03-16T04:19:08;5.27;;;2.90;;
37451;SDS011;23314;51.114;6.900;2023-03-16T04:21:35;4.20;;;3.10;;
37451;SDS011;23314;51.114;6.900;2023-03-16T04:24:00;4.50;;;3.10;;
37451;SDS011;23314;51.114;6.900;2023-03-16T04:26:29;5.10;;;2.70;;
37451;SDS011;23314;51.114;6.900;2023-03-16T04:28:55;3.10;;;2.67;;
37451;SDS011;23314;51.114;6.900;2023-03-16T04:31:20;5.83;;;3.13;;
37451;SDS011;23314;51.114;6.900;2023-03-16T04:33:45;5.57;;;3.13;;
37451;SDS011;23314;51.114;6.900;2023-03-16T04:36:11;4.20;;;3.17;;
37451;SDS011;23314;51.114;6.900;2023-03-16T04:38:36;4.10;;;3.33;;
37451;SDS011;23314;51.114;6.900;2023-03-16T04:41:02;6.17;;;3.30;;
37451;SDS011;23314;51.114;6.900;2023-03-16T04:43:29;7.17;;;2.93;;
37451;SDS011;23314;51.114;6.900;2023-03-16T04:45:58;4.50;;;3.00;;
37451;SDS011;23314;51.114;6.900;2023-03-16T04:48:24;6.03;;;3.57;;
37451;SDS011;23314;51.114;6.900;2023-03-16T04:50:50;5.53;;;3.27;;
37451;SDS011;23314;51.114;6.900;2023-03-16T04:53:15;5.17;;;3.17;;
37451;SDS011;23314;51.114;6.900;2023-03-16T04:55:41;4.73;;;2.97;;
37451;SDS011;23314;51.114;6.900;2023-03-16T04:58:08;3.33;;;3.03;;
37451;SDS011;23314;51.114;6.900;2023-03-16T05:00:34;5.77;;;3.53;;
37451;SDS011;23314;51.114;6.900;2023-03-16T05:02:59;3.93;;;3.50;;
37451;SDS011;23314;51.114;6.900;2023-03-16T05:05:26;5.40;;;3.23;;
37451;SDS011;23314;51.114;6.900;2023-03-16T05:07:52;4.60;;;3.50;;
37451;SDS011;23314;51.114;6.900;2023-03-16T05:10:17;3.80;;;3.40;;
37451;SDS011;23314;51.114;6.900;2023-03-16T05:12:43;6.67;;;3.63;;
37451;SDS011;23314;51.114;6.900;2023-03-16T05:15:09;6.53;;;3.80;;
37451;SDS011;23314;51.114;6.900;2023-03-16T05:17:35;5.73;;;3.80;;
37451;SDS011;23314;51.114;6.900;2023-03-16T05:20:01;6.37;;;4.20;;
37451;SDS011;23314;51.114;6.900;2023-03-16T05:22:40;9.13;;;4.73;;
37451;SDS011;23314;51.114;6.900;2023-03-16T05:25:07;7.47;;;4.67;;
37451;SDS011;23314;51.114;6.900;2023-03-16T05:27:33;7.13;;;4.30;;
37451;SDS011;23314;51.114;6.900;2023-03-16T05:29:59;6.70;;;4.37;;
37451;SDS011;23314;51.114;6.900;2023-03-16T05:32:25;10.37;;;4.77;;
37451;SDS011;23314;51.114;6.900;2023-03-16T05:34:51;10.20;;;4.80;;
37451;SDS011;23314;51.114;6.900;2023-03-16T05:37:17;10.47;;;5.00;;
37451;SDS011;23314;51.114;6.900;2023-03-16T05:39:43;7.50;;;4.53;;
37451;SDS011;23314;51.114;6.900;2023-03-16T05:42:08;9.77;;;4.43;;
37451;SDS011;23314;51.114;6.900;2023-03-16T05:44:34;10.47;;;5.13;;
37451;SDS011;23314;51.114;6.900;2023-03-16T05:46:59;9.10;;;4.77;;
37451;SDS011;23314;51.114;6.900;2023-03-16T05:49:25;7.90;;;5.10;;
37451;SDS011;23314;51.114;6.900;2023-03-16T05:51:50;7.07;;;5.03;;
37451;SDS011;23314;51.114;6.900;2023-03-16T05:54:15;10.80;;;5.27;;
37451;SDS011;23314;51.114;6.900;2023-03-16T05:56:41;7.03;;;5.03;;
37451;SDS011;23314;51.114;6.900;2023-03-16T05:59:06;7.23;;;5.07;;
37451;SDS011;23314;51.114;6.900;2023-03-16T06:01:35;12.77;;;5.47;;
37451;SDS011;23314;51.114;6.900;2023-03-16T06:04:00;6.80;;;4.70;;
37451;SDS011;23314;51.114;6.900;2023-03-16T06:06:27;8.63;;;5.23;;
37451;SDS011;23314;51.114;6.900;2023-03-16T06:08:52;11.67;;;5.30;;
37451;SDS011;23314;51.114;6.900;2023-03-16T06:11:18;12.77;;;5.00;;
37451;SDS011;23314;51.114;6.900;2023-03-16T06:13:43;9.80;;;4.80;;
37451;SDS011;23314;51.114;6.900;2023-03-16T06:16:09;7.83;;;5.37;;
37451;SDS011;23314;51.114;6.900;2023-03-16T06:18:37;8.30;;;4.63;;
37451;SDS011;23314;51.114;6.900;2023-03-16T06:21:03;6.43;;;4.67;;
37451;SDS011;23314;51.114;6.900;2023-03-16T06:23:29;7.83;;;5.00;;
37451;SDS011;23314;51.114;6.900;2023-03-16T06:25:54;8.17;;;5.47;;
37451;SDS011;23314;51.114;6.900;2023-03-16T06:28:20;6.23;;;5.60;;
37451;SDS011;23314;51.114;6.900;2023-03-16T06:30:46;7.47;;;5.13;;
37451;SDS011;23314;51.114;6.900;2023-03-16T06:33:11;6.47;;;4.73;;
37451;SDS011;23314;51.114;6.900;2023-03-16T06:35:37;7.83;;;5.27;;
37451;SDS011;23314;51.114;6.900;2023-03-16T06:38:02;5.40;;;4.90;;
37451;SDS011;23314;51.114;6.900;2023-03-16T06:40:27;10.50;;;5.73;;
37451;SDS011;23314;51.114;6.900;2023-03-16T06:42:53;7.83;;;5.23;;
37451;SDS011;23314;51.114;6.900;2023-03-16T06:45:18;5.60;;;4.73;;
37451;SDS011;23314;51.114;6.900;2023-03-16T06:47:46;8.33;;;5.07;;
37451;SDS011;23314;51.114;6.900;2023-03-16T06:50:11;7.60;;;5.37;;
37451;SDS011;23314;51.114;6.900;2023-03-16T06:52:37;9.77;;;5.27;;
37451;SDS011;23314;51.114;6.900;2023-03-16T06:55:02;7.13;;;4.70;;
37451;SDS011;23314;51.114;6.900;2023-03-16T06:57:28;7.10;;;4.93;;
37451;SDS011;23314;51.114;6.900;2023-03-16T06:59:53;10.87;;;5.60;;
37451;SDS011;23314;51.114;6.900;2023-03-16T07:02:18;6.70;;;4.90;;
37451;SDS011;23314;51.114;6.900;2023-03-16T07:04:44;5.73;;;4.90;;
37451;SDS011;23314;51.114;6.900;2023-03-16T07:07:10;9.13;;;5.20;;
37451;SDS011;23314;51.114;6.900;2023-03-16T07:09:36;6.13;;;4.73;;
37451;SDS011;23314;51.114;6.900;2023-03-16T07:12:02;4.87;;;4.43;;
37451;SDS011;23314;51.114;6.900;2023-03-16T07:14:27;7.10;;;4.77;;
37451;SDS011;23314;51.114;6.900;2023-03-16T07:16:53;6.33;;;5.33;;
37451;SDS011;23314;51.114;6.900;2023-03-16T07:19:18;6.57;;;5.20;;
37451;SDS011;23314;51.114;6.900;2023-03-16T07:21:44;8.73;;;5.47;;
37451;SDS011;23314;51.114;6.900;2023-03-16T07:24:09;9.10;;;4.80;;
37451;SDS011;23314;51.114;6.900;2023-03-16T07:26:35;8.10;;;4.90;;
37451;SDS011;23314;51.114;6.900;2023-03-16T07:29:01;7.20;;;5.07;;
37451;SDS011;23314;51.114;6.900;2023-03-16T07:31:28;7.03;;;4.87;;
37451;SDS011;23314;51.114;6.900;2023-03-16T07:33:54;5.80;;;5.10;;
37451;SDS011;23314;51.114;6.900;2023-03-16T07:36:19;7.63;;;5.03;;
37451;SDS011;23314;51.114;6.900;2023-03-16T07:38:44;6.53;;;5.33;;
37451;SDS011;23314;51.114;6.900;2023-03-16T07:41:10;6.03;;;5.30;;
37451;SDS011;23314;51.114;6.900;2023-03-16T07:43:35;7.00;;;5.10;;
37451;SDS011;23314;51.114;6.900;2023-03-16T07:46:00;6.07;;;5.47;;
37451;SDS011;23314;51.114;6.900;2023-03-16T07:48:25;6.97;;;5.30;;
37451;SDS011;23314;51.114;6.900;2023-03-16T07:50:51;7.77;;;5.60;;
37451;SDS011;23314;51.114;6.900;2023-03-16T07:53:16;7.93;;;5.47;;
37451;SDS011;23314;51.114;6.900;2023-03-16T07:55:42;10.13;;;5.40;;
37451;SDS011;23314;51.114;6.900;2023-03-16T07:58:09;7.93;;;5.43;;
37451;SDS011;23314;51.114;6.900;2023-03-16T08:00:35;7.50;;;5.53;;
37451;SDS011;23314;51.114;6.900;2023-03-16T08:03:01;7.20;;;5.53;;
37451;SDS011;23314;51.114;6.900;2023-03-16T08:05:27;7.93;;;6.07;;
37451;SDS011;23314;51.114;6.900;2023-03-16T08:07:52;10.33;;;5.47;;
37451;SDS011;23314;51.114;6.900;2023-03-16T08:10:20;7.27;;;5.20;;
37451;SDS011;23314;51.114;6.900;2023-03-16T08:12:46;8.13;;;5.67;;
37451;SDS011;23314;51.114;6.900;2023-03-16T08:15:11;8.80;;;5.50;;
37451;SDS011;23314;51.114;6.900;2023-03-16T08:17:36;19.93;;;5.90;;
37451;SDS011;23314;51.114;6.900;2023-03-16T08:20:05;7.87;;;5.53;;
37451;SDS011;23314;51.114;6.900;2023-03-16T08:22:34;6.60;;;5.70;;
37451;SDS011;23314;51.114;6.900;2023-03-16T08:25:01;8.87;;;5.60;;
37451;SDS011;23314;51.114;6.900;2023-03-16T08:27:30;6.40;;;4.93;;
37451;SDS011;23314;51.114;6.900;2023-03-16T08:29:55;9.90;;;5.70;;
37451;SDS011;23314;51.114;6.900;2023-03-16T08:32:21;6.90;;;5.23;;
37451;SDS011;23314;51.114;6.900;2023-03-16T08:34:46;7.50;;;5.50;;
37451;SDS011;23314;51.114;6.900;2023-03-16T08:37:12;7.93;;;5.70;;
37451;SDS011;23314;51.114;6.900;2023-03-16T08:39:41;5.63;;;5.13;;
37451;SDS011;23314;51.114;6.900;2023-03-16T08:42:08;7.40;;;5.20;;
37451;SDS011;23314;51.114;6.900;2023-03-16T08:44:34;7.00;;;5.37;;
37451;SDS011;23314;51.114;6.900;2023-03-16T08:47:00;7.40;;;5.03;;
37451;SDS011;23314;51.114;6.900;2023-03-16T08:49:26;7.63;;;5.60;;
37451;SDS011;23314;51.114;6.900;2023-03-16T08:51:53;6.60;;;5.77;;
37451;SDS011;23314;51.114;6.900;2023-03-16T08:54:18;7.57;;;5.67;;
37451;SDS011;23314;51.114;6.900;2023-03-16T08:56:44;7.37;;;5.53;;
37451;SDS011;23314;51.114;6.900;2023-03-16T08:59:09;9.13;;;5.77;;
37451;SDS011;23314;51.114;6.900;2023-03-16T09:01:34;7.13;;;5.63;;
37451;SDS011;23314;51.114;6.900;2023-03-16T09:04:00;9.70;;;5.67;;
37451;SDS011;23314;51.114;6.900;2023-03-16T09:06:25;7.37;;;5.13;;
37451;SDS011;23314;51.114;6.900;2023-03-16T09:08:51;7.27;;;5.40;;
37451;SDS011;23314;51.114;6.900;2023-03-16T09:11:18;5.97;;;5.37;;
37451;SDS011;23314;51.114;6.900;2023-03-16T09:13:44;7.47;;;5.50;;
37451;SDS011;23314;51.114;6.900;2023-03-16T09:16:10;6.63;;;5.53;;
37451;SDS011;23314;51.114;6.900;2023-03-16T09:18:37;9.80;;;5.90;;
37451;SDS011;23314;51.114;6.900;2023-03-16T09:21:04;6.17;;;5.53;;
37451;SDS011;23314;51.114;6.900;2023-03-16T09:23:32;6.23;;;5.17;;
37451;SDS011;23314;51.114;6.900;2023-03-16T09:26:01;6.83;;;5.33;;
37451;SDS011;23314;51.114;6.900;2023-03-16T09:28:29;8.27;;;5.40;;
37451;SDS011;23314;51.114;6.900;2023-03-16T09:30:55;5.70;;;5.10;;
37451;SDS011;23314;51.114;6.900;2023-03-16T09:33:24;5.93;;;5.33;;
37451;SDS011;23314;51.114;6.900;2023-03-16T09:35:51;11.60;;;4.90;;
37451;SDS011;23314;51.114;6.900;2023-03-16T09:38:19;7.03;;;5.40;;
37451;SDS011;23314;51.114;6.900;2023-03-16T09:40:46;10.10;;;6.43;;
37451;SDS011;23314;51.114;6.900;2023-03-16T09:43:20;8.60;;;5.20;;
37451;SDS011;23314;51.114;6.900;2023-03-16T09:46:10;6.27;;;4.90;;
37451;SDS011;23314;51.114;6.900;2023-03-16T09:48:40;6.53;;;4.80;;
37451;SDS011;23314;51.114;6.900;2023-03-16T09:51:07;6.47;;;5.17;;
37451;SDS011;23314;51.114;6.900;2023-03-16T09:53:42;6.07;;;5.47;;
37451;SDS011;23314;51.114;6.900;2023-03-16T09:56:26;6.87;;;4.93;;
37451;SDS011;23314;51.114;6.900;2023-03-16T09:58:55;7.60;;;5.53;;
37451;SDS011;23314;51.114;6.900;2023-03-16T10:06:59;9.40;;;5.30;;
37451;SDS011;23314;51.114;6.900;2023-03-16T10:09:31;6.73;;;4.97;;
37451;SDS011;23314;51.114;6.900;2023-03-16T10:12:02;6.47;;;4.73;;
37451;SDS011;23314;51.114;6.900;2023-03-16T10:17:24;6.27;;;4.23;;
37451;SDS011;23314;51.114;6.900;2023-03-16T10:22:30;6.60;;;4.70;;
37451;SDS011;23314;51.114;6.900;2023-03-16T10:27:49;5.57;;;4.70;;
37451;SDS011;23314;51.114;6.900;2023-03-16T10:30:25;5.93;;;4.40;;
37451;SDS011;23314;51.114;6.900;2023-03-16T10:32:52;5.13;;;4.40;;
37451;SDS011;23314;51.114;6.900;2023-03-16T10:38:03;6.63;;;4.37;;
37451;SDS011;23314;51.114;6.900;2023-03-16T10:40:31;6.07;;;3.80;;
37451;SDS011;23314;51.114;6.900;2023-03-16T10:43:06;4.50;;;4.10;;
37451;SDS011;23314;51.114;6.900;2023-03-16T10:45:36;5.07;;;4.27;;
37451;SDS011;23314;51.114;6.900;2023-03-16T10:48:11;6.27;;;4.07;;
37451;SDS011;23314;51.114;6.900;2023-03-16T10:50:38;4.63;;;3.77;;
37451;SDS011;23314;51.114;6.900;2023-03-16T10:53:09;4.40;;;4.00;;
37451;SDS011;23314;51.114;6.900;2023-03-16T10:55:42;7.97;;;3.93;;
37451;SDS011;23314;51.114;6.900;2023-03-16T10:58:09;3.53;;;3.20;;
37451;SDS011;23314;51.114;6.900;2023-03-16T11:00:36;3.90;;;3.13;;
37451;SDS011;23314;51.114;6.900;2023-03-16T11:03:18;3.57;;;3.17;;
37451;SDS011;23314;51.114;6.900;2023-03-16T11:05:47;5.60;;;3.83;;
37451;SDS011;23314;51.114;6.900;2023-03-16T11:08:21;6.50;;;3.40;;
37451;SDS011;23314;51.114;6.900;2023-03-16T11:10:56;3.63;;;3.33;;
37451;SDS011;23314;51.114;6.900;2023-03-16T11:13:30;4.20;;;3.60;;
37451;SDS011;23314;51.114;6.900;2023-03-16T11:16:05;4.43;;;3.37;;
37451;SDS011;23314;51.114;6.900;2023-03-16T11:18:48;6.53;;;4.07;;
37451;SDS011;23314;51.114;6.900;2023-03-16T11:21:21;5.90;;;3.50;;
37451;SDS011;23314;51.114;6.900;2023-03-16T11:24:09;8.10;;;3.70;;
37451;SDS011;23314;51.114;6.900;2023-03-16T11:26:41;5.03;;;3.67;;
37451;SDS011;23314;51.114;6.900;2023-03-16T11:29:17;5.70;;;3.20;;
37451;SDS011;23314;51.114;6.900;2023-03-16T11:34:22;4.33;;;3.63;;
37451;SDS011;23314;51.114;6.900;2023-03-16T11:36:53;4.33;;;3.40;;
37451;SDS011;23314;51.114;6.900;2023-03-16T11:39:30;4.27;;;3.20;;
37451;SDS011;23314;51.114;6.900;2023-03-16T11:45:02;7.93;;;3.60;;
37451;SDS011;23314;51.114;6.900;2023-03-16T11:48:01;4.40;;;3.30;;
37451;SDS011;23314;51.114;6.900;2023-03-16T11:51:01;4.33;;;3.00;;
37451;SDS011;23314;51.114;6.900;2023-03-16T11:53:41;4.07;;;3.33;;
37451;SDS011;23314;51.114;6.900;2023-03-16T11:59:37;4.23;;;3.30;;
37451;SDS011;23314;51.114;6.900;2023-03-16T12:02:05;6.97;;;3.73;;
37451;SDS011;23314;51.114;6.900;2023-03-16T12:04:47;5.27;;;3.40;;
37451;SDS011;23314;51.114;6.900;2023-03-16T12:15:46;3.53;;;3.20;;
37451;SDS011;23314;51.114;6.900;2023-03-16T12:18:17;4.43;;;3.00;;
37451;SDS011;23314;51.114;6.900;2023-03-16T12:21:06;3.73;;;3.30;;
37451;SDS011;23314;51.114;6.900;2023-03-16T12:26:18;4.33;;;3.10;;
37451;SDS011;23314;51.114;6.900;2023-03-16T12:28:44;2.80;;;2.33;;
37451;SDS011;23314;51.114;6.900;2023-03-16T12:39:31;3.60;;;2.20;;
37451;SDS011;23314;51.114;6.900;2023-03-16T12:48:42;3.70;;;2.20;;
37451;SDS011;23314;51.114;6.900;2023-03-16T12:51:11;4.57;;;1.93;;
37451;SDS011;23314;51.114;6.900;2023-03-16T12:53:37;4.70;;;2.37;;
37451;SDS011;23314;51.114;6.900;2023-03-16T12:56:07;6.93;;;2.23;;
37451;SDS011;23314;51.114;6.900;2023-03-16T12:58:46;6.03;;;2.50;;
37451;SDS011;23314;51.114;6.900;2023-03-16T13:01:15;5.33;;;2.10;;
37451;SDS011;23314;51.114;6.900;2023-03-16T13:03:45;3.20;;;1.70;;
37451;SDS011;23314;51.114;6.900;2023-03-16T13:06:20;2.80;;;1.93;;
37451;SDS011;23314;51.114;6.900;2023-03-16T13:08:51;3.50;;;2.00;;
37451;SDS011;23314;51.114;6.900;2023-03-16T13:11:23;4.30;;;1.70;;
37451;SDS011;23314;51.114;6.900;2023-03-16T13:16:25;2.00;;;1.80;;
37451;SDS011;23314;51.114;6.900;2023-03-16T13:19:00;2.20;;;1.90;;
37451;SDS011;23314;51.114;6.900;2023-03-16T13:21:41;1.80;;;1.70;;
37451;SDS011;23314;51.114;6.900;2023-03-16T13:26:45;2.27;;;1.73;;
37451;SDS011;23314;51.114;6.900;2023-03-16T13:31:42;4.40;;;1.67;;
37451;SDS011;23314;51.114;6.900;2023-03-16T13:34:11;2.73;;;1.90;;
37451;SDS011;23314;51.114;6.900;2023-03-16T13:36:39;4.70;;;1.70;;
37451;SDS011;23314;51.114;6.900;2023-03-16T13:39:11;3.07;;;1.63;;
37451;SDS011;23314;51.114;6.900;2023-03-16T13:41:40;5.53;;;2.30;;
37451;SDS011;23314;51.114;6.900;2023-03-16T13:44:13;2.40;;;1.60;;
37451;SDS011;23314;51.114;6.900;2023-03-16T13:46:39;3.47;;;1.73;;
37451;SDS011;23314;51.114;6.900;2023-03-16T13:49:05;2.33;;;1.70;;
37451;SDS011;23314;51.114;6.900;2023-03-16T13:51:32;3.40;;;1.80;;
37451;SDS011;23314;51.114;6.900;2023-03-16T13:54:03;2.50;;;1.80;;
37451;SDS011;23314;51.114;6.900;2023-03-16T13:56:30;4.17;;;1.97;;
37451;SDS011;23314;51.114;6.900;2023-03-16T13:58:57;2.90;;;1.80;;
37451;SDS011;23314;51.114;6.900;2023-03-16T14:01:23;4.67;;;2.30;;
37451;SDS011;23314;51.114;6.900;2023-03-16T14:03:50;2.63;;;1.77;;
37451;SDS011;23314;51.114;6.900;2023-03-16T14:06:22;5.30;;;2.10;;
37451;SDS011;23314;51.114;6.900;2023-03-16T14:08:49;4.37;;;1.80;;
37451;SDS011;23314;51.114;6.900;2023-03-16T14:11:17;3.80;;;1.83;;
37451;SDS011;23314;51.114;6.900;2023-03-16T14:13:48;4.20;;;1.80;;
37451;SDS011;23314;51.114;6.900;2023-03-16T14:16:17;4.27;;;1.87;;
37451;SDS011;23314;51.114;6.900;2023-03-16T14:18:44;2.87;;;1.80;;
37451;SDS011;23314;51.114;6.900;2023-03-16T14:21:37;3.47;;;1.60;;
37451;SDS011;23314;51.114;6.900;2023-03-16T14:24:42;2.93;;;2.00;;
37451;SDS011;23314;51.114;6.900;2023-03-16T14:27:24;2.23;;;1.70;;
37451;SDS011;23314;51.114;6.900;2023-03-16T14:29:53;2.40;;;1.83;;
37451;SDS011;23314;51.114;6.900;2023-03-16T14:32:26;3.93;;;1.73;;
37451;SDS011;23314;51.114;6.900;2023-03-16T14:37:41;4.50;;;1.80;;
37451;SDS011;23314;51.114;6.900;2023-03-16T14:40:17;3.83;;;2.13;;
37451;SDS011;23314;51.114;6.900;2023-03-16T14:42:47;7.00;;;2.30;;
37451;SDS011;23314;51.114;6.900;2023-03-16T14:45:13;3.80;;;2.30;;
37451;SDS011;23314;51.114;6.900;2023-03-16T14:47:41;5.87;;;2.00;;
37451;SDS011;23314;51.114;6.900;2023-03-16T14:50:08;3.37;;;2.10;;
37451;SDS011;23314;51.114;6.900;2023-03-16T14:52:40;2.97;;;1.90;;
37451;SDS011;23314;51.114;6.900;2023-03-16T14:55:10;3.83;;;1.90;;
37451;SDS011;23314;51.114;6.900;2023-03-16T14:57:39;3.80;;;2.07;;
37451;SDS011;23314;51.114;6.900;2023-03-16T15:00:06;3.50;;;2.00;;
37451;SDS011;23314;51.114;6.900;2023-03-16T15:02:33;1.90;;;1.80;;
37451;SDS011;23314;51.114;6.900;2023-03-16T15:05:00;5.53;;;2.20;;
37451;SDS011;23314;51.114;6.900;2023-03-16T15:07:27;4.13;;;2.33;;
37451;SDS011;23314;51.114;6.900;2023-03-16T15:12:39;4.70;;;2.30;;
37451;SDS011;23314;51.114;6.900;2023-03-16T15:15:10;4.07;;;1.90;;
37451;SDS011;23314;51.114;6.900;2023-03-16T15:17:47;3.60;;;2.07;;
37451;SDS011;23314;51.114;6.900;2023-03-16T15:20:20;3.20;;;1.90;;
37451;SDS011;23314;51.114;6.900;2023-03-16T15:22:50;6.13;;;2.20;;
37451;SDS011;23314;51.114;6.900;2023-03-16T15:30:39;4.13;;;2.27;;
37451;SDS011;23314;51.114;6.900;2023-03-16T15:33:07;2.37;;;2.13;;
37451;SDS011;23314;51.114;6.900;2023-03-16T15:35:34;5.67;;;2.17;;
37451;SDS011;23314;51.114;6.900;2023-03-16T15:38:01;5.23;;;2.23;;
37451;SDS011;23314;51.114;6.900;2023-03-16T15:40:31;2.20;;;1.97;;
37451;SDS011;23314;51.114;6.900;2023-03-16T15:42:57;5.67;;;2.83;;
37451;SDS011;23314;51.114;6.900;2023-03-16T15:45:23;2.43;;;2.10;;
37451;SDS011;23314;51.114;6.900;2023-03-16T15:47:49;4.47;;;2.37;;
37451;SDS011;23314;51.114;6.900;2023-03-16T15:50:17;3.43;;;2.63;;
37451;SDS011;23314;51.114;6.900;2023-03-16T15:52:50;4.73;;;2.37;;
37451;SDS011;23314;51.114;6.900;2023-03-16T15:55:24;4.23;;;2.70;;
37451;SDS011;23314;51.114;6.900;2023-03-16T15:58:00;3.80;;;2.40;;
37451;SDS011;23314;51.114;6.900;2023-03-16T16:00:35;2.87;;;2.30;;
37451;SDS011;23314;51.114;6.900;2023-03-16T16:03:04;3.63;;;2.23;;
37451;SDS011;23314;51.114;6.900;2023-03-16T16:05:31;4.80;;;2.53;;
37451;SDS011;23314;51.114;6.900;2023-03-16T16:08:00;2.70;;;2.20;;
37451;SDS011;23314;51.114;6.900;2023-03-16T16:10:26;3.63;;;2.30;;
37451;SDS011;23314;51.114;6.900;2023-03-16T16:12:52;3.37;;;2.30;;